createdAt,value
2022-08-25T00:00:38.591Z,89.9
2022-08-25T00:01:54.880Z,90
2022-08-25T00:03:11.173Z,90.2
2022-08-25T00:04:27.467Z,90.2
2022-08-25T00:05:43.760Z,90.3
2022-08-25T00:07:00.054Z,90.4
2022-08-25T00:08:16.348Z,90.3
2022-08-25T00:09:32.627Z,90.5
2022-08-25T00:10:48.921Z,90.5
2022-08-25T00:12:05.225Z,90.8
2022-08-25T00:13:20.000Z,91.6
2022-08-25T00:14:36.810Z,91.2
2022-08-25T00:15:53.105Z,91
2022-08-25T00:17:09.412Z,90.6
2022-08-25T00:18:25.696Z,90.3
2022-08-25T00:19:41.992Z,90.8
2022-08-25T00:20:58.291Z,91.2
2022-08-25T00:22:14.569Z,91.7
2022-08-25T00:23:30.858Z,91.7
2022-08-25T00:24:47.164Z,91.2
2022-08-25T00:26:03.460Z,91.1
2022-08-25T00:27:19.746Z,90.9
2022-08-25T00:28:36.041Z,90.7
2022-08-25T00:29:51.336Z,90.8
2022-08-25T00:31:07.646Z,90.9
2022-08-25T00:32:23.920Z,90.6
2022-08-25T00:33:40.219Z,90.8
2022-08-25T00:34:56.512Z,91.1
2022-08-25T00:36:12.797Z,91.1
2022-08-25T00:37:29.094Z,91.2
2022-08-25T00:38:45.399Z,91.2
2022-08-25T00:40:01.688Z,91.7
2022-08-25T00:41:17.971Z,91.6
2022-08-25T00:42:34.272Z,91.8
2022-08-25T00:43:50.570Z,91.7
2022-08-25T00:45:06.849Z,91.9
2022-08-25T00:46:22.168Z,92
2022-08-25T00:47:38.462Z,92.3
2022-08-25T00:48:54.745Z,92.2
2022-08-25T00:50:11.000Z,92
2022-08-25T00:51:27.329Z,92.2
2022-08-25T00:52:43.633Z,92.2
2022-08-25T00:53:59.916Z,92.3
2022-08-25T00:55:16.205Z,92.4
2022-08-25T00:56:32.510Z,92.7
2022-08-25T00:57:48.790Z,92.7
2022-08-25T00:59:05.093Z,92.5
2022-08-25T01:00:21.386Z,92.5
2022-08-25T01:01:37.682Z,92.5
2022-08-25T01:02:52.984Z,92.7
2022-08-25T01:04:09.276Z,92.8
2022-08-25T01:05:25.573Z,92.9
2022-08-25T01:06:41.853Z,93.2
2022-08-25T01:07:58.149Z,93.6
2022-08-25T01:09:14.449Z,93.8
2022-08-25T01:10:30.744Z,93.6
2022-08-25T01:11:47.038Z,93.6
2022-08-25T01:13:03.324Z,93.3
2022-08-25T01:14:19.622Z,93.4
2022-08-25T01:15:35.906Z,93.1
2022-08-25T01:16:52.192Z,92.9
2022-08-25T01:18:08.486Z,92.9
2022-08-25T01:19:23.801Z,93
2022-08-25T01:20:40.090Z,93.3
2022-08-25T01:21:56.388Z,93.4
2022-08-25T01:23:12.673Z,93.3
2022-08-25T01:24:28.968Z,93.6
2022-08-25T01:25:45.268Z,93.9
2022-08-25T01:27:01.562Z,94
2022-08-25T01:28:17.846Z,94.5
2022-08-25T01:29:34.135Z,94.5
2022-08-25T01:30:50.436Z,94.4
2022-08-25T01:32:06.733Z,94.3
2022-08-25T01:33:23.032Z,94.3
2022-08-25T01:34:39.306Z,94.4
2022-08-25T01:35:54.621Z,94.8
2022-08-25T01:37:10.907Z,95
2022-08-25T01:38:27.202Z,94.9
2022-08-25T01:39:43.495Z,94.9
2022-08-25T01:40:59.788Z,95
2022-08-25T01:42:16.090Z,95.2
2022-08-25T01:43:32.387Z,95.2
2022-08-25T01:44:48.672Z,95.2
2022-08-25T01:46:04.970Z,95.3
2022-08-25T01:47:21.265Z,95.2
2022-08-25T01:48:37.551Z,95.2
2022-08-25T01:49:53.842Z,95.3
2022-08-25T01:51:10.142Z,95.2
2022-08-25T01:52:25.444Z,95.2
2022-08-25T01:53:41.742Z,95.1
2022-08-25T01:54:58.029Z,95.2
2022-08-25T01:56:14.316Z,95.3
2022-08-25T01:57:30.605Z,95.4
2022-08-25T01:58:46.911Z,95.5
2022-08-25T02:00:03.201Z,95.5
2022-08-25T02:01:19.488Z,95.4
2022-08-25T02:02:35.780Z,95.3
2022-08-25T02:03:52.071Z,95.2
2022-08-25T02:05:08.375Z,95.1
2022-08-25T02:06:24.658Z,95.2
2022-08-25T02:07:40.947Z,95.1
2022-08-25T02:08:56.257Z,95
2022-08-25T02:10:12.564Z,95.1
2022-08-25T02:11:28.856Z,95.3
2022-08-25T02:12:45.138Z,95.2
2022-08-25T02:14:01.431Z,95.2
2022-08-25T02:15:17.728Z,95.5
2022-08-25T02:16:34.027Z,95.6
2022-08-25T02:17:50.304Z,95.8
2022-08-25T02:19:06.607Z,95.8
2022-08-25T02:20:22.902Z,95.9
2022-08-25T02:21:39.181Z,95.9
2022-08-25T02:22:55.488Z,96
2022-08-25T02:24:11.782Z,96
2022-08-25T02:25:27.078Z,95.9
2022-08-25T02:26:43.366Z,96
2022-08-25T02:27:59.665Z,96.1
2022-08-25T02:29:15.964Z,96.1
2022-08-25T02:30:32.253Z,96.2
2022-08-25T02:31:48.545Z,96.1
2022-08-25T02:33:04.832Z,96
2022-08-25T02:34:21.139Z,96
2022-08-25T02:35:37.427Z,96
2022-08-25T02:36:53.720Z,96.1
2022-08-25T02:38:10.007Z,96.2
2022-08-25T02:39:26.295Z,96.1
2022-08-25T02:40:42.600Z,96.2
2022-08-25T02:41:57.903Z,96.1
2022-08-25T02:43:14.197Z,96.1
2022-08-25T02:44:30.492Z,96.1
2022-08-25T02:45:46.787Z,96.1
2022-08-25T02:47:03.081Z,96.1
2022-08-25T02:48:18.391Z,95.9
2022-08-25T02:49:34.686Z,95.9
2022-08-25T02:50:50.984Z,95.9
2022-08-25T02:52:07.259Z,96
2022-08-25T02:53:23.558Z,96.2
2022-08-25T02:54:39.862Z,96.2
2022-08-25T02:55:56.149Z,96.2
2022-08-25T02:57:12.447Z,96
2022-08-25T02:58:28.739Z,95.9
2022-08-25T02:59:45.029Z,96
2022-08-25T03:01:01.320Z,96.1
2022-08-25T03:02:17.611Z,96.2
2022-08-25T03:03:33.902Z,96.4
2022-08-25T03:04:49.205Z,96.4
2022-08-25T03:06:05.498Z,96.3
2022-08-25T03:07:21.801Z,96.4
2022-08-25T03:08:38.094Z,96.5
2022-08-25T03:09:54.382Z,96.6
2022-08-25T03:11:10.674Z,96.5
2022-08-25T03:12:26.968Z,96.4
2022-08-25T03:13:43.253Z,96.4
2022-08-25T03:14:59.549Z,96.1
2022-08-25T03:16:15.837Z,96.3
2022-08-25T03:17:32.126Z,96.3
2022-08-25T03:18:48.435Z,96.4
2022-08-25T03:20:04.725Z,96.5
2022-08-25T03:21:20.032Z,96.5
2022-08-25T03:22:36.324Z,96.6
2022-08-25T03:23:52.620Z,96.5
2022-08-25T03:25:08.907Z,96.5
2022-08-25T03:26:25.201Z,96.6
2022-08-25T03:27:41.494Z,96.8
2022-08-25T03:28:57.794Z,97
2022-08-25T03:30:14.068Z,97.1
2022-08-25T03:31:30.364Z,97.2
2022-08-25T03:32:46.672Z,97.5
2022-08-25T03:34:02.951Z,97.6
2022-08-25T03:35:19.258Z,97.5
2022-08-25T03:36:35.549Z,97.5
2022-08-25T03:37:50.842Z,97.5
2022-08-25T03:39:07.136Z,97.6
2022-08-25T03:40:23.428Z,97.6
2022-08-25T03:41:39.726Z,97.4
2022-08-25T03:42:55.965Z,97.3
2022-08-25T03:44:12.210Z,97.3
2022-08-25T03:45:28.435Z,97.3
2022-08-25T03:46:44.691Z,97.1
2022-08-25T03:48:00.920Z,97.2
2022-08-25T03:49:17.172Z,97.2
2022-08-25T03:50:33.395Z,97.2
2022-08-25T03:51:49.644Z,97.5
2022-08-25T03:53:05.877Z,97.4
2022-08-25T03:54:21.138Z,97.4
2022-08-25T03:55:37.377Z,97.4
2022-08-25T03:56:53.609Z,97.3
2022-08-25T03:58:09.852Z,97.4
2022-08-25T03:59:26.084Z,97.5
2022-08-25T04:00:42.320Z,97.6
2022-08-25T04:01:58.557Z,97.6
2022-08-25T04:03:14.809Z,97.7
2022-08-25T04:04:31.031Z,97.7
2022-08-25T04:05:47.277Z,97.8
2022-08-25T04:07:03.521Z,97.7
2022-08-25T04:08:19.754Z,97.6
2022-08-25T04:09:35.987Z,97.6
2022-08-25T04:10:51.258Z,97.8
2022-08-25T04:12:07.496Z,98
2022-08-25T04:13:23.724Z,98.1
2022-08-25T04:14:39.972Z,98.2
2022-08-25T04:15:56.213Z,98
2022-08-25T04:17:12.438Z,97.8
2022-08-25T04:18:28.681Z,97.7
2022-08-25T04:19:44.915Z,97.9
2022-08-25T04:21:01.163Z,97.9
2022-08-25T04:22:17.398Z,97.9
2022-08-25T04:23:33.640Z,97.9
2022-08-25T04:24:49.879Z,97.9
2022-08-25T04:26:06.116Z,98
2022-08-25T04:27:21.377Z,98.1
2022-08-25T04:28:37.618Z,98.3
2022-08-25T04:29:53.836Z,98.1
2022-08-25T04:31:10.086Z,97.9
2022-08-25T04:32:26.318Z,97.8
2022-08-25T04:33:42.560Z,97.8
2022-08-25T04:34:58.798Z,97.8
2022-08-25T04:36:15.044Z,97.8
2022-08-25T04:37:31.276Z,97.8
2022-08-25T04:38:47.517Z,97.8
2022-08-25T04:40:03.757Z,97.7
2022-08-25T04:41:20.000Z,97.6
2022-08-25T04:42:36.233Z,97.8
2022-08-25T04:43:51.486Z,97.7
2022-08-25T04:45:07.720Z,97.9
2022-08-25T04:46:23.955Z,97.7
2022-08-25T04:47:40.194Z,97.6
2022-08-25T04:48:56.443Z,97.6
2022-08-25T04:50:12.671Z,97.4
2022-08-25T04:51:28.909Z,97.6
2022-08-25T04:52:45.155Z,97.9
2022-08-25T04:54:01.400Z,98
2022-08-25T04:55:17.630Z,97.9
2022-08-25T04:56:33.879Z,98.3
2022-08-25T04:57:50.107Z,98.2
2022-08-25T04:59:06.342Z,98.1
2022-08-25T05:00:21.612Z,97.9
2022-08-25T05:01:37.838Z,98
2022-08-25T05:02:54.085Z,98
2022-08-25T05:04:10.310Z,97.9
2022-08-25T05:05:26.550Z,97.8
2022-08-25T05:06:42.793Z,97.9
2022-08-25T05:07:59.033Z,97.9
2022-08-25T05:09:15.284Z,97.9
2022-08-25T05:10:31.514Z,98
2022-08-25T05:11:47.756Z,98
2022-08-25T05:13:03.992Z,97.8
2022-08-25T05:14:20.219Z,97.7
2022-08-25T05:15:36.464Z,97.6
2022-08-25T05:16:51.730Z,97.5
2022-08-25T05:18:07.961Z,97.2
2022-08-25T05:19:24.205Z,97.2
2022-08-25T05:20:40.442Z,97.1
2022-08-25T05:21:56.679Z,96.9
2022-08-25T05:23:12.919Z,96.8
2022-08-25T05:24:29.144Z,96.8
2022-08-25T05:25:45.397Z,96.9
2022-08-25T05:27:01.628Z,96.7
2022-08-25T05:28:17.859Z,96.7
2022-08-25T05:29:34.114Z,96.5
2022-08-25T05:30:50.337Z,96.5
2022-08-25T05:32:06.588Z,96.5
2022-08-25T05:33:21.843Z,96.4
2022-08-25T05:34:38.078Z,96.2
2022-08-25T05:35:54.324Z,96.2
2022-08-25T05:37:10.556Z,96.3
2022-08-25T05:38:26.797Z,96.3
2022-08-25T05:39:43.038Z,96.4
2022-08-25T05:40:59.270Z,96
2022-08-25T05:42:15.515Z,95.8
2022-08-25T05:43:31.757Z,95.7
2022-08-25T05:44:47.998Z,95.6
2022-08-25T05:46:04.239Z,95.6
2022-08-25T05:47:20.466Z,95.6
2022-08-25T05:48:36.715Z,95.5
2022-08-25T05:49:51.951Z,95.7
2022-08-25T05:51:08.202Z,95.6
2022-08-25T05:52:24.439Z,95.4
2022-08-25T05:53:40.685Z,95.3
2022-08-25T05:54:56.919Z,95.2
2022-08-25T05:56:13.156Z,95
2022-08-25T05:57:29.391Z,95.2
2022-08-25T05:58:45.636Z,95.2
2022-08-25T06:00:01.872Z,94.8
2022-08-25T06:02:34.346Z,94.5
2022-08-25T06:03:50.587Z,94.3
2022-08-25T06:05:06.815Z,94.3
2022-08-25T06:06:22.070Z,94.2
2022-08-25T06:07:38.312Z,93.5
2022-08-25T06:08:54.556Z,93.5
2022-08-25T06:10:10.789Z,93.5
2022-08-25T06:11:27.043Z,93.3
2022-08-25T06:12:43.269Z,93.2
2022-08-25T06:13:59.505Z,93.1
2022-08-25T06:15:15.751Z,92.6
2022-08-25T06:16:31.980Z,92.7
2022-08-25T06:17:48.232Z,92.7
2022-08-25T06:19:04.472Z,92.6
2022-08-25T06:20:20.698Z,92.2
2022-08-25T06:21:36.932Z,92.2
2022-08-25T06:22:52.194Z,92
2022-08-25T06:24:08.435Z,91.9
2022-08-25T06:25:24.669Z,91.8
2022-08-25T06:26:40.919Z,91.7
2022-08-25T06:27:57.147Z,91.4
2022-08-25T06:29:13.391Z,90.9
2022-08-25T06:30:29.636Z,90.9
2022-08-25T06:31:45.868Z,90.8
2022-08-25T06:33:02.106Z,90.8
2022-08-25T06:34:18.351Z,90.7
2022-08-25T06:35:34.574Z,90.8
2022-08-25T06:36:50.814Z,90.2
2022-08-25T06:38:07.067Z,90
2022-08-25T06:39:22.304Z,90
2022-08-25T06:40:38.556Z,89.7
2022-08-25T06:41:54.781Z,89.7
2022-08-25T06:43:11.034Z,89.7
2022-08-25T06:44:27.266Z,89.1
2022-08-25T06:45:43.504Z,88.9
2022-08-25T06:46:59.741Z,89
2022-08-25T06:48:15.987Z,88.8
2022-08-25T06:49:32.221Z,88.8
2022-08-25T06:50:48.453Z,88.6
2022-08-25T06:52:04.690Z,88.1
2022-08-25T06:53:20.936Z,87.7
2022-08-25T06:54:37.180Z,87.2
2022-08-25T06:55:52.430Z,86.6
2022-08-25T06:57:08.663Z,87.4
2022-08-25T06:58:24.912Z,86.9
2022-08-25T06:59:41.150Z,86.6
2022-08-25T07:00:57.384Z,86
2022-08-25T07:02:13.613Z,86.1
2022-08-25T07:03:28.876Z,86
2022-08-25T07:04:45.114Z,85.9
2022-08-25T07:06:01.364Z,85.2
2022-08-25T07:07:17.597Z,85.1
2022-08-25T07:08:33.846Z,84.8
2022-08-25T07:09:50.067Z,84.7
2022-08-25T07:11:06.306Z,83.9
2022-08-25T07:12:22.544Z,84.1
2022-08-25T07:13:38.799Z,84.2
2022-08-25T07:14:55.028Z,84.5
2022-08-25T07:16:11.273Z,83.9
2022-08-25T07:17:27.514Z,83.2
2022-08-25T07:18:43.755Z,82.8
2022-08-25T07:19:58.990Z,82.8
2022-08-25T07:21:15.232Z,81.6
2022-08-25T07:22:31.479Z,81.4
2022-08-25T07:23:47.709Z,81.5
2022-08-25T07:25:03.948Z,80.8
2022-08-25T07:26:20.184Z,80
2022-08-25T07:27:36.423Z,80.3
2022-08-25T07:28:52.664Z,80.9
2022-08-25T07:30:08.911Z,80.7
2022-08-25T07:31:25.151Z,81.2
2022-08-25T07:32:41.376Z,80.4
2022-08-25T07:33:57.622Z,79.7
2022-08-25T07:35:13.869Z,79
2022-08-25T07:36:29.122Z,78.9
2022-08-25T07:37:45.362Z,79.5
2022-08-25T07:39:01.591Z,79.5
2022-08-25T07:40:17.826Z,79.9
2022-08-25T07:41:34.077Z,79.5
2022-08-25T07:42:50.321Z,79.3
2022-08-25T07:44:06.554Z,78.4
2022-08-25T07:45:22.783Z,78.1
2022-08-25T07:46:39.034Z,77.8
2022-08-25T07:47:55.256Z,77.1
2022-08-25T07:49:11.500Z,77.5
2022-08-25T07:50:27.750Z,77.4
2022-08-25T07:51:43.975Z,76
2022-08-25T07:52:59.228Z,75.9
2022-08-25T07:54:15.472Z,76.5
2022-08-25T07:55:31.719Z,76.3
2022-08-25T07:56:47.950Z,76.4
2022-08-25T07:58:04.199Z,76.6
2022-08-25T07:59:20.429Z,76.5
2022-08-25T08:00:36.665Z,75
2022-08-25T08:01:52.907Z,75.7
2022-08-25T08:04:25.380Z,74
2022-08-25T08:05:41.617Z,74.2
2022-08-25T08:06:57.862Z,74.2
2022-08-25T08:08:14.099Z,74.4
2022-08-25T08:09:29.352Z,73.5
2022-08-25T08:10:45.595Z,73.2
2022-08-25T08:12:01.831Z,72.3
2022-08-25T08:13:18.071Z,71.9
2022-08-25T08:14:34.302Z,71.6
2022-08-25T08:15:50.546Z,71.8
2022-08-25T08:17:06.795Z,71.9
2022-08-25T08:18:23.032Z,71.5
2022-08-25T08:19:39.259Z,71.7
2022-08-25T08:20:55.495Z,70.5
2022-08-25T08:22:11.736Z,69.6
2022-08-25T08:23:27.000Z,69.8
2022-08-25T08:24:44.226Z,68.1
2022-08-25T08:25:59.479Z,67.9
2022-08-25T08:27:15.718Z,66.7
2022-08-25T08:28:31.955Z,66.2
2022-08-25T08:29:48.193Z,65.1
2022-08-25T08:31:04.422Z,64.5
2022-08-25T08:32:20.657Z,63.5
2022-08-25T08:33:36.905Z,60.4
2022-08-25T08:34:53.135Z,61.6
2022-08-25T08:36:09.375Z,59.1
2022-08-25T08:37:25.619Z,59.5
2022-08-25T08:38:41.860Z,60.6
2022-08-25T08:39:58.103Z,60.9
2022-08-25T08:41:14.328Z,62
2022-08-25T08:42:29.592Z,61.8
2022-08-25T08:43:45.839Z,63.1
2022-08-25T08:45:02.071Z,63.5
2022-08-25T08:46:18.302Z,64.4
2022-08-25T08:47:34.554Z,62.3
2022-08-25T08:48:50.775Z,63
2022-08-25T08:50:07.020Z,62
2022-08-25T08:51:23.264Z,62.1
2022-08-25T08:52:39.504Z,61.5
2022-08-25T08:53:55.748Z,60.5
2022-08-25T08:55:11.977Z,58.8
2022-08-25T08:56:28.210Z,57.6
2022-08-25T08:57:44.453Z,56.7
2022-08-25T08:58:59.706Z,57
2022-08-25T09:00:15.958Z,57
2022-08-25T09:01:32.185Z,56.9
2022-08-25T09:02:48.428Z,56.6
2022-08-25T09:04:04.665Z,54.8
2022-08-25T09:05:20.909Z,55.1
2022-08-25T09:06:37.151Z,56.4
2022-08-25T09:07:53.376Z,55
2022-08-25T09:09:09.610Z,53.9
2022-08-25T09:10:25.853Z,54.7
2022-08-25T09:11:42.092Z,54.8
2022-08-25T09:12:58.330Z,54.6
2022-08-25T09:14:14.565Z,54.8
2022-08-25T09:15:29.820Z,55.2
2022-08-25T09:16:46.072Z,56.1
2022-08-25T09:18:02.309Z,53.7
2022-08-25T09:19:18.551Z,53
2022-08-25T09:20:34.777Z,52.5
2022-08-25T09:21:51.020Z,52.9
2022-08-25T09:23:07.253Z,54.3
2022-08-25T09:24:23.496Z,54.1
2022-08-25T09:25:39.737Z,54.6
2022-08-25T09:26:55.990Z,53.2
2022-08-25T09:28:12.210Z,55.2
2022-08-25T09:29:28.467Z,54
2022-08-25T09:30:44.688Z,53.9
2022-08-25T09:31:59.954Z,55.4
2022-08-25T09:33:16.188Z,53.4
2022-08-25T09:34:32.440Z,54.4
2022-08-25T09:35:48.677Z,53.8
2022-08-25T09:37:04.901Z,52
2022-08-25T09:38:21.156Z,52.5
2022-08-25T09:39:37.386Z,51.1
2022-08-25T09:40:53.629Z,50.9
2022-08-25T09:42:09.857Z,52.2
2022-08-25T09:43:26.093Z,53.4
2022-08-25T09:44:42.345Z,53.5
2022-08-25T09:45:58.585Z,53
2022-08-25T09:47:14.827Z,52.7
2022-08-25T09:48:30.072Z,52.4
2022-08-25T09:49:46.316Z,53.8
2022-08-25T09:51:02.560Z,54.2
2022-08-25T09:52:18.800Z,53.6
2022-08-25T09:53:35.036Z,54
2022-08-25T09:54:51.260Z,54
2022-08-25T09:56:07.507Z,54.5
2022-08-25T09:57:23.756Z,54.6
2022-08-25T09:58:39.991Z,56.5
2022-08-25T09:59:56.223Z,57.8
2022-08-25T10:01:12.456Z,56.8
2022-08-25T10:02:28.695Z,54.4
2022-08-25T10:03:44.950Z,55.5
2022-08-25T10:05:00.205Z,56.8
2022-08-25T10:06:16.433Z,58
2022-08-25T10:07:32.670Z,57.5
2022-08-25T10:08:48.907Z,58
2022-08-25T10:10:05.157Z,56
2022-08-25T10:11:21.397Z,54.7
2022-08-25T10:12:37.631Z,52.2
2022-08-25T10:13:53.870Z,52.4
2022-08-25T10:15:10.101Z,51.9
2022-08-25T10:16:26.355Z,52.1
2022-08-25T10:17:42.580Z,49.6
2022-08-25T10:18:58.828Z,47.9
2022-08-25T10:20:15.062Z,47.2
2022-08-25T10:21:30.322Z,46.7
2022-08-25T10:22:46.569Z,46.4
2022-08-25T10:24:02.802Z,46.9
2022-08-25T10:25:19.034Z,48
2022-08-25T10:26:35.268Z,48.4
2022-08-25T10:27:51.511Z,49
2022-08-25T10:29:07.756Z,48.5
2022-08-25T10:30:23.989Z,47.7
2022-08-25T10:31:40.233Z,45.8
2022-08-25T10:32:56.469Z,45.3
2022-08-25T10:34:12.702Z,45.7
2022-08-25T10:35:28.950Z,45
2022-08-25T10:36:45.177Z,46.3
2022-08-25T10:38:00.449Z,46.2
2022-08-25T10:39:16.672Z,48
2022-08-25T10:40:32.925Z,47
2022-08-25T10:41:49.157Z,45.3
2022-08-25T10:43:05.403Z,43.9
2022-08-25T10:44:21.647Z,43.6
2022-08-25T10:45:37.875Z,43.1
2022-08-25T10:46:54.119Z,43
2022-08-25T10:48:10.361Z,43.4
2022-08-25T10:49:26.588Z,43.5
2022-08-25T10:50:42.828Z,43.4
2022-08-25T10:51:59.072Z,44.5
2022-08-25T10:53:15.318Z,45.3
2022-08-25T10:54:30.568Z,45.1
2022-08-25T10:55:46.804Z,43.8
2022-08-25T10:57:03.046Z,44.4
2022-08-25T10:58:19.271Z,43.5
2022-08-25T10:59:35.522Z,44.2
2022-08-25T11:00:51.761Z,44.1
2022-08-25T11:02:07.993Z,45.6
2022-08-25T11:03:24.230Z,46.4
2022-08-25T11:04:40.479Z,46.5
2022-08-25T11:05:56.709Z,48.4
2022-08-25T11:07:12.949Z,48.5
2022-08-25T11:09:45.437Z,49.6
2022-08-25T11:11:00.691Z,46.2
2022-08-25T11:12:16.925Z,45.4
2022-08-25T11:13:33.168Z,45.1
2022-08-25T11:14:49.396Z,43.8
2022-08-25T11:16:05.635Z,44.9
2022-08-25T11:17:21.875Z,45
2022-08-25T11:18:37.144Z,46.7
2022-08-25T11:19:53.380Z,47.6
2022-08-25T11:21:09.614Z,48.1
2022-08-25T11:22:25.855Z,49.7
2022-08-25T11:23:42.091Z,51.1
2022-08-25T11:24:58.334Z,50
2022-08-25T11:26:14.579Z,48.3
2022-08-25T11:27:30.806Z,47.1
2022-08-25T11:28:47.057Z,47.2
2022-08-25T11:30:03.280Z,46.8
2022-08-25T11:31:19.517Z,48
2022-08-25T11:32:35.761Z,48
2022-08-25T11:33:52.006Z,46.1
2022-08-25T11:35:07.255Z,45.8
2022-08-25T11:36:23.492Z,45
2022-08-25T11:37:39.739Z,44.5
2022-08-25T11:38:55.966Z,43.1
2022-08-25T11:40:12.216Z,41.5
2022-08-25T11:41:28.445Z,41.8
2022-08-25T11:42:44.685Z,41.4
2022-08-25T11:44:00.940Z,41.4
2022-08-25T11:46:33.410Z,41.5
2022-08-25T11:47:49.638Z,40.9
2022-08-25T11:49:05.888Z,42.3
2022-08-25T11:50:22.125Z,41
2022-08-25T11:51:37.372Z,41.9
2022-08-25T11:52:53.622Z,41.9
2022-08-25T11:54:09.866Z,42.1
2022-08-25T11:55:26.089Z,44.4
2022-08-25T11:56:42.332Z,44.6
2022-08-25T11:57:58.581Z,45
2022-08-25T11:59:14.808Z,47.9
2022-08-25T12:00:31.054Z,47
2022-08-25T12:01:47.292Z,47.3
2022-08-25T12:03:03.540Z,48.2
2022-08-25T12:04:19.770Z,48.2
2022-08-25T12:05:36.017Z,48
2022-08-25T12:06:52.243Z,49.2
2022-08-25T12:08:07.505Z,49.5
2022-08-25T12:09:23.735Z,50.7
2022-08-25T12:10:39.984Z,51
2022-08-25T12:11:56.236Z,48.8
2022-08-25T12:13:12.474Z,47.8
2022-08-25T12:14:28.720Z,46.7
2022-08-25T12:15:44.941Z,46.3
2022-08-25T12:17:01.182Z,44.5
2022-08-25T12:18:17.432Z,43.8
2022-08-25T12:19:33.676Z,43.8
2022-08-25T12:20:49.909Z,42.1
2022-08-25T12:22:06.150Z,43.6
2022-08-25T12:23:22.377Z,42.6
2022-08-25T12:24:37.639Z,41.8
2022-08-25T12:25:53.888Z,42.1
2022-08-25T12:27:10.123Z,42.1
2022-08-25T12:28:26.361Z,41.4
2022-08-25T12:29:42.596Z,40.9
2022-08-25T12:30:58.834Z,40.9
2022-08-25T12:32:15.066Z,42.1
2022-08-25T12:33:31.322Z,43.8
2022-08-25T12:34:47.560Z,44.4
2022-08-25T12:36:03.799Z,45.3
2022-08-25T12:37:20.032Z,46.2
2022-08-25T12:38:36.282Z,46.6
2022-08-25T12:39:52.521Z,46.6
2022-08-25T12:41:07.770Z,48.1
2022-08-25T12:42:23.995Z,47.5
2022-08-25T12:43:40.237Z,47.2
2022-08-25T12:44:56.493Z,46.2
2022-08-25T12:46:12.724Z,46
2022-08-25T12:47:28.956Z,45.9
2022-08-25T12:48:45.206Z,45.9
2022-08-25T12:50:01.438Z,46.4
2022-08-25T12:51:17.671Z,47
2022-08-25T12:52:33.927Z,47.4
2022-08-25T12:53:50.169Z,46.4
2022-08-25T12:55:06.404Z,45.6
2022-08-25T12:56:22.632Z,43.8
2022-08-25T12:57:37.889Z,43.1
2022-08-25T12:58:54.137Z,43
2022-08-25T13:00:10.371Z,43
2022-08-25T13:01:26.611Z,42.9
2022-08-25T13:02:42.848Z,42.3
2022-08-25T13:03:59.083Z,43.4
2022-08-25T13:05:15.334Z,42.2
2022-08-25T13:06:31.560Z,41.3
2022-08-25T13:07:47.804Z,40.1
2022-08-25T13:09:04.042Z,39.2
2022-08-25T13:10:20.290Z,40.4
2022-08-25T13:11:36.514Z,40.5
2022-08-25T13:12:52.765Z,39.6
2022-08-25T13:14:08.016Z,40.4
2022-08-25T13:15:24.256Z,39.5
2022-08-25T13:16:40.499Z,39.6
2022-08-25T13:17:56.734Z,38.9
2022-08-25T13:19:12.969Z,39.2
2022-08-25T13:20:29.214Z,37.3
2022-08-25T13:21:45.460Z,38.3
2022-08-25T13:23:01.686Z,38.5
2022-08-25T13:24:17.936Z,39
2022-08-25T13:25:34.176Z,39.4
2022-08-25T13:26:50.415Z,40.6
2022-08-25T13:28:06.659Z,38.4
2022-08-25T13:29:22.895Z,39.8
2022-08-25T13:30:38.155Z,40
2022-08-25T13:31:54.393Z,39.9
2022-08-25T13:33:10.638Z,40.3
2022-08-25T13:34:26.863Z,39.9
2022-08-25T13:35:43.114Z,40.5
2022-08-25T13:36:59.339Z,40.4
2022-08-25T13:38:15.576Z,42.9
2022-08-25T13:39:31.819Z,41.3
2022-08-25T13:40:48.067Z,40.6
2022-08-25T13:42:04.301Z,40.4
2022-08-25T13:43:20.536Z,40.6
2022-08-25T13:44:36.781Z,40.4
2022-08-25T13:45:53.019Z,40
2022-08-25T13:47:08.275Z,40.6
2022-08-25T13:48:24.526Z,41.1
2022-08-25T13:49:40.753Z,42.5
2022-08-25T13:50:56.998Z,41.1
2022-08-25T13:52:13.240Z,41.6
2022-08-25T13:53:29.480Z,41.9
2022-08-25T13:54:45.710Z,41.7
2022-08-25T13:56:01.962Z,41.2
2022-08-25T13:57:18.201Z,41.1
2022-08-25T13:58:34.440Z,41.3
2022-08-25T13:59:50.670Z,41.1
2022-08-25T14:01:06.915Z,41.8
2022-08-25T14:02:23.159Z,42
2022-08-25T14:03:38.412Z,41.1
2022-08-25T14:04:54.646Z,40.2
2022-08-25T14:06:10.889Z,41.3
2022-08-25T14:07:27.118Z,41.9
2022-08-25T14:08:43.375Z,41.9
2022-08-25T14:09:59.601Z,42.5
2022-08-25T14:11:15.849Z,41.9
2022-08-25T14:12:32.093Z,41.4
2022-08-25T14:13:48.319Z,42
2022-08-25T14:15:04.569Z,42.7
2022-08-25T14:16:20.812Z,43.1
2022-08-25T14:17:37.052Z,43.4
2022-08-25T14:18:53.283Z,44.2
2022-08-25T14:20:08.529Z,43.6
2022-08-25T14:21:24.775Z,44.1
2022-08-25T14:22:41.021Z,43.9
2022-08-25T14:23:57.265Z,44.3
2022-08-25T14:25:13.507Z,45.3
2022-08-25T14:26:29.735Z,46
2022-08-25T14:27:45.974Z,45.1
2022-08-25T14:29:02.217Z,43.8
2022-08-25T14:30:18.459Z,44.7
2022-08-25T14:31:34.686Z,45.5
2022-08-25T14:32:50.932Z,44.1
2022-08-25T14:34:07.181Z,44.1
2022-08-25T14:35:23.405Z,44.7
2022-08-25T14:36:38.679Z,44
2022-08-25T14:37:54.918Z,44.6
2022-08-25T14:39:11.144Z,45.5
2022-08-25T14:40:27.383Z,45.7
2022-08-25T14:41:43.618Z,44.9
2022-08-25T14:42:59.870Z,44.8
2022-08-25T14:44:16.115Z,44.6
2022-08-25T14:45:32.339Z,45
2022-08-25T14:46:48.585Z,45.9
2022-08-25T14:48:04.828Z,46.5
2022-08-25T14:49:21.069Z,45.7
2022-08-25T14:50:37.294Z,45.6
2022-08-25T14:51:53.541Z,46.3
2022-08-25T14:53:08.801Z,45.2
2022-08-25T14:54:25.032Z,45.1
2022-08-25T14:55:41.267Z,45.3
2022-08-25T14:56:57.505Z,46.8
2022-08-25T14:58:13.750Z,45.7
2022-08-25T14:59:30.003Z,45.6
2022-08-25T15:00:46.233Z,46.7
2022-08-25T15:02:02.463Z,45.8
2022-08-25T15:03:18.715Z,47.4
2022-08-25T15:04:34.956Z,46.6
2022-08-25T15:05:51.200Z,45.2
2022-08-25T15:07:07.427Z,46.1
2022-08-25T15:08:23.671Z,46.8
2022-08-25T15:09:38.929Z,46.6
2022-08-25T15:10:55.164Z,46.8
2022-08-25T15:13:27.607Z,48.3
2022-08-25T15:14:43.839Z,48
2022-08-25T15:16:00.077Z,47.6
2022-08-25T15:17:16.313Z,48.1
2022-08-25T15:18:32.572Z,48.8
2022-08-25T15:19:48.794Z,48.5
2022-08-25T15:21:05.041Z,48.2
2022-08-25T15:22:21.274Z,48.2
2022-08-25T15:23:37.520Z,48.3
2022-08-25T15:24:53.757Z,48.9
2022-08-25T15:26:09.010Z,48.9
2022-08-25T15:27:25.257Z,48.9
2022-08-25T15:28:41.497Z,47.8
2022-08-25T15:29:57.731Z,48.7
2022-08-25T15:31:13.965Z,49.3
2022-08-25T15:32:30.213Z,48.7
2022-08-25T15:33:45.465Z,49.2
2022-08-25T15:35:01.717Z,48.4
2022-08-25T15:36:17.951Z,49.4
2022-08-25T15:37:34.198Z,50
2022-08-25T15:38:50.434Z,50.3
2022-08-25T15:40:06.657Z,50.4
2022-08-25T15:41:22.899Z,50.8
2022-08-25T15:42:39.150Z,50.6
2022-08-25T15:43:55.382Z,50.2
2022-08-25T15:45:11.617Z,50.2
2022-08-25T15:46:27.860Z,50.9
2022-08-25T15:47:44.095Z,51.3
2022-08-25T15:49:00.337Z,51
2022-08-25T15:50:15.599Z,51.4
2022-08-25T15:51:31.826Z,51.7
2022-08-25T15:52:48.075Z,51.7
2022-08-25T15:54:04.308Z,52.5
2022-08-25T15:55:20.540Z,52.1
2022-08-25T15:56:36.781Z,52.5
2022-08-25T15:57:53.021Z,53.2
2022-08-25T15:59:09.264Z,53
2022-08-25T16:00:25.503Z,52.8
2022-08-25T16:01:41.749Z,52.9
2022-08-25T16:02:57.991Z,52.4
2022-08-25T16:04:14.232Z,52.9
2022-08-25T16:05:30.454Z,53.2
2022-08-25T16:06:45.713Z,53.3
2022-08-25T16:08:01.954Z,53.8
2022-08-25T16:09:18.189Z,53.3
2022-08-25T16:10:34.434Z,53.9
2022-08-25T16:11:50.670Z,54
2022-08-25T16:13:06.902Z,53.5
2022-08-25T16:14:23.148Z,53.5
2022-08-25T16:15:39.383Z,53.3
2022-08-25T16:16:55.635Z,53.9
2022-08-25T16:18:11.873Z,54
2022-08-25T16:19:28.110Z,53.6
2022-08-25T16:20:44.345Z,53.5
2022-08-25T16:22:00.590Z,53.3
2022-08-25T16:23:15.838Z,53.9
2022-08-25T16:24:32.083Z,53.4
2022-08-25T16:25:48.317Z,53.6
2022-08-25T16:27:04.552Z,54
2022-08-25T16:28:20.793Z,54.1
2022-08-25T16:29:37.034Z,54.6
2022-08-25T16:30:53.278Z,54.3
2022-08-25T16:32:09.505Z,54.8
2022-08-25T16:33:25.759Z,54.5
2022-08-25T16:34:41.978Z,54.6
2022-08-25T16:35:58.221Z,54.2
2022-08-25T16:37:14.455Z,54.7
2022-08-25T16:38:30.699Z,54.9
2022-08-25T16:39:45.968Z,55.3
2022-08-25T16:41:02.200Z,55.3
2022-08-25T16:42:18.429Z,55.7
2022-08-25T16:43:34.674Z,56.3
2022-08-25T16:44:50.916Z,56.8
2022-08-25T16:46:07.158Z,56.7
2022-08-25T16:47:23.401Z,57.2
2022-08-25T16:48:39.627Z,56.9
2022-08-25T16:49:55.876Z,57
2022-08-25T16:51:12.103Z,57.5
2022-08-25T16:52:28.343Z,57.5
2022-08-25T16:53:44.590Z,58
2022-08-25T16:55:00.816Z,57.8
2022-08-25T16:56:16.075Z,57.5
2022-08-25T16:57:32.313Z,57.6
2022-08-25T16:58:48.548Z,58
2022-08-25T17:00:04.786Z,58.4
2022-08-25T17:01:21.034Z,58.1
2022-08-25T17:02:37.266Z,58.4
2022-08-25T17:03:53.510Z,58.4
2022-08-25T17:05:09.752Z,58.5
2022-08-25T17:06:25.982Z,58
2022-08-25T17:07:42.225Z,58